Terminal Aerodrome Forecast
Issued by NWS

Home | Current Version | Previous Version | Text Only | Print | Product List | Glossary On
Versions: 1 2 3 4 5 6 7 8 9 10 11 12 13 14
081
FTUS45 KTFX 221136
TAFCTB
TAF
KCTB 221136Z 2212/2312 32009KT P6SM SCT040 BKN060
     FM222000 01009KT 5SM -RASN BKN010 OVC020
     FM230400 VRB05KT 6SM -RASN SCT003 BKN010 OVC030=

USA.gov is the U.S. government's official web portal to all federal, state and local government web resources and services.